Time;durP1;ratioP1;P1;durP2;ratioP2;P2;SDS_P1;SDS_P2;PMS_P1;PMS_P2;Temp;Humidity;BMP_temperature;BMP_pressure;BME280_temperature;BME280_humidity;BME280_pressure;Samples;Min_cycle;Max_cycle;Signal;HPM_P1;HPM_P2
2023/06/11 00:03:46;;;;;;;10.50;6.47;;;;;16.80;96328.00;;;;8254214;28;20235;-71
2023/06/11 00:07:52;;;;;;;8.40;6.57;;;;;16.80;96335.00;;;;8245254;28;20199;-69
2023/06/11 00:11:55;;;;;;;7.53;6.72;;;;;16.70;96334.00;;;;8249269;28;20993;-72
2023/06/11 00:15:59;;;;;;;11.68;6.47;;;;;16.60;96336.00;;;;8224558;28;20700;-74
2023/06/11 00:20:09;;;;;;;7.20;6.35;;;;;16.50;96334.00;;;;8240223;28;20317;-74
2023/06/11 00:24:15;;;;;;;10.30;7.72;;;;;16.40;96329.00;;;;8245259;28;20207;-73
2023/06/11 00:28:18;;;;;;;12.65;7.45;;;;;16.30;96337.00;;;;8248733;28;20203;-73
2023/06/11 00:32:21;;;;;;;8.38;6.63;;;;;16.30;96335.00;;;;8238752;28;20240;-71
2023/06/11 00:36:27;;;;;;;10.90;7.40;;;;;16.20;96343.00;;;;8241712;28;20207;-73
2023/06/11 00:40:34;;;;;;;8.70;7.10;;;;;16.20;96333.00;;;;8244141;28;20308;-72
2023/06/11 00:44:37;;;;;;;11.68;7.70;;;;;16.20;96342.00;;;;8244195;28;20562;-72
2023/06/11 00:48:49;;;;;;;11.85;7.07;;;;;16.10;96329.00;;;;8245951;28;20203;-70
2023/06/11 00:52:52;;;;;;;10.10;8.15;;;;;16.00;96333.00;;;;8233314;28;20657;-72
2023/06/11 00:57:10;;;;;;;8.98;6.80;;;;;16.00;96334.00;;;;8241025;28;20329;-73
2023/06/11 01:01:15;;;;;;;8.88;7.43;;;;;16.00;96331.00;;;;8242584;28;20538;-72
2023/06/11 01:05:22;;;;;;;8.50;7.55;;;;;16.00;96334.00;;;;8243208;28;20234;-71
2023/06/11 01:09:31;;;;;;;11.25;7.43;;;;;15.90;96334.00;;;;8231777;28;20208;-72
2023/06/11 01:13:39;;;;;;;9.77;7.45;;;;;15.90;96332.00;;;;8234341;28;20341;-72
2023/06/11 01:17:54;;;;;;;14.93;7.95;;;;;15.80;96342.00;;;;8245309;28;20309;-73
2023/06/11 01:22:03;;;;;;;9.35;7.97;;;;;15.80;96349.00;;;;8242779;28;20211;-72
2023/06/11 01:26:19;;;;;;;11.55;8.00;;;;;15.70;96347.00;;;;8243156;28;20756;-72
2023/06/11 01:30:24;;;;;;;10.07;7.95;;;;;15.70;96355.00;;;;8237420;28;20853;-73
2023/06/11 01:34:33;;;;;;;8.88;7.95;;;;;15.60;96346.00;;;;8240600;28;20223;-72
2023/06/11 01:38:41;;;;;;;10.68;7.63;;;;;15.50;96348.00;;;;8248697;28;20196;-72
2023/06/11 01:42:45;;;;;;;12.63;8.18;;;;;15.40;96336.00;;;;8245601;28;20200;-70
2023/06/11 01:46:50;;;;;;;12.20;8.60;;;;;15.30;96350.00;;;;8241991;28;20701;-71
2023/06/11 01:50:55;;;;;;;11.60;8.05;;;;;15.10;96336.00;;;;8235475;28;20211;-71
2023/06/11 01:55:01;;;;;;;10.50;9.25;;;;;15.00;96334.00;;;;8245874;28;20235;-71
2023/06/11 01:59:08;;;;;;;11.85;8.48;;;;;15.10;96342.00;;;;8245037;28;20195;-71
2023/06/11 02:03:15;;;;;;;12.00;8.07;;;;;15.10;96340.00;;;;8242265;28;20233;-70
2023/06/11 02:07:22;;;;;;;11.13;8.30;;;;;15.10;96338.00;;;;8242511;28;20202;-71
2023/06/11 02:11:28;;;;;;;12.77;9.05;;;;;15.10;96341.00;;;;8244218;28;20289;-71
2023/06/11 02:15:33;;;;;;;11.07;8.60;;;;;15.20;96347.00;;;;8243585;28;20653;-71
2023/06/11 02:19:38;;;;;;;14.45;8.30;;;;;15.20;96342.00;;;;8240070;28;20203;-71
2023/06/11 02:23:43;;;;;;;12.43;9.50;;;;;15.30;96339.00;;;;8240865;28;20646;-70
2023/06/11 02:27:48;;;;;;;11.65;9.45;;;;;15.30;96344.00;;;;8238398;28;20219;-72
2023/06/11 02:31:54;;;;;;;13.07;8.80;;;;;15.30;96343.00;;;;8244001;28;20227;-73
2023/06/11 02:36:04;;;;;;;12.57;9.10;;;;;15.30;96346.00;;;;8236187;28;20199;-73
2023/06/11 02:40:09;;;;;;;11.00;9.77;;;;;15.30;96345.00;;;;8238623;28;20564;-72
2023/06/11 02:44:14;;;;;;;9.98;8.93;;;;;15.30;96350.00;;;;8240005;28;20333;-72
2023/06/11 02:48:17;;;;;;;10.48;8.88;;;;;15.30;96357.00;;;;8243798;28;20285;-74
2023/06/11 02:52:22;;;;;;;12.00;9.25;;;;;15.30;96353.00;;;;8238634;28;20226;-73
2023/06/11 02:56:27;;;;;;;12.50;8.98;;;;;15.20;96349.00;;;;8243627;28;20257;-74
2023/06/11 03:04:44;;;;;;;11.80;9.45;;;;;15.30;96349.00;;;;8269287;26;20248;-73
2023/06/11 03:08:50;;;;;;;16.60;10.00;;;;;15.30;96349.00;;;;8282782;28;20284;-74
2023/06/11 03:12:55;;;;;;;14.25;9.75;;;;;15.20;96356.00;;;;8280427;28;20262;-75
2023/06/11 03:16:58;;;;;;;14.52;10.27;;;;;15.20;96357.00;;;;8282724;28;20666;-71
2023/06/11 03:21:01;;;;;;;13.70;10.18;;;;;15.20;96357.00;;;;8286820;28;20209;-74
2023/06/11 03:25:07;;;;;;;13.40;9.77;;;;;15.20;96365.00;;;;8294054;28;20194;-73
2023/06/11 03:29:15;;;;;;;18.58;11.23;;;;;15.20;96365.00;;;;8293829;28;20292;-70
2023/06/11 03:33:18;;;;;;;14.18;10.77;;;;;15.20;96373.00;;;;8292192;28;20240;-73
2023/06/11 03:37:21;;;;;;;15.23;10.82;;;;;15.20;96368.00;;;;8292453;28;20276;-73
2023/06/11 03:41:28;;;;;;;13.80;10.70;;;;;15.20;96367.00;;;;8293656;28;20280;-72
2023/06/11 03:45:31;;;;;;;14.00;10.93;;;;;15.30;96371.00;;;;8292961;28;20252;-73
2023/06/11 03:49:41;;;;;;;13.63;9.55;;;;;15.50;96366.00;;;;8293291;28;20277;-74
2023/06/11 03:53:45;;;;;;;14.40;10.05;;;;;15.60;96369.00;;;;8286004;28;20713;-74
2023/06/11 03:57:54;;;;;;;13.82;10.25;;;;;15.70;96366.00;;;;8288692;28;20233;-71
2023/06/11 04:01:57;;;;;;;11.93;9.73;;;;;15.90;96371.00;;;;8288597;28;20238;-74
2023/06/11 04:06:00;;;;;;;12.57;10.18;;;;;16.10;96369.00;;;;8288405;28;20198;-73
2023/06/11 04:10:05;;;;;;;16.85;9.70;;;;;16.40;96378.00;;;;8290730;28;20563;-72
2023/06/11 04:14:11;;;;;;;13.60;10.20;;;;;16.80;96372.00;;;;8288582;28;20590;-70
2023/06/11 04:18:16;;;;;;;14.77;10.15;;;;;17.10;96384.00;;;;8288700;28;20234;-70
2023/06/11 04:22:20;;;;;;;12.13;9.50;;;;;17.40;96383.00;;;;8290616;28;20236;-72
2023/06/11 04:26:23;;;;;;;11.52;9.45;;;;;17.80;96378.00;;;;8293311;28;20206;-71
2023/06/11 04:30:33;;;;;;;12.15;9.60;;;;;18.20;96377.00;;;;8287682;28;20198;-73
2023/06/11 04:34:37;;;;;;;11.32;9.57;;;;;18.60;96370.00;;;;8284989;28;20564;-71
2023/06/11 04:38:44;;;;;;;12.13;9.35;;;;;18.90;96369.00;;;;8280542;28;20618;-70
2023/06/11 04:42:48;;;;;;;12.23;9.38;;;;;19.20;96376.00;;;;8277205;28;20202;-71
2023/06/11 04:46:57;;;;;;;10.90;9.32;;;;;19.30;96378.00;;;;8282765;28;20202;-72
2023/06/11 04:51:01;;;;;;;10.95;8.63;;;;;19.40;96382.00;;;;8281602;28;20187;-71
2023/06/11 04:55:09;;;;;;;10.30;8.55;;;;;19.40;96380.00;;;;8285081;28;20348;-71
2023/06/11 04:59:15;;;;;;;10.52;8.98;;;;;19.50;96383.00;;;;8287413;28;20198;-71
2023/06/11 05:03:21;;;;;;;12.50;8.77;;;;;19.60;96381.00;;;;8286683;28;20707;-70
2023/06/11 05:07:26;;;;;;;14.45;9.40;;;;;19.60;96384.00;;;;8279076;28;20203;-70
2023/06/11 05:11:32;;;;;;;14.07;9.80;;;;;19.50;96380.00;;;;8285042;28;20269;-71
2023/06/11 05:15:35;;;;;;;13.48;9.85;;;;;19.50;96376.00;;;;8283022;28;20308;-70
2023/06/11 05:19:42;;;;;;;15.07;10.07;;;;;19.50;96372.00;;;;8284744;28;20242;-71
2023/06/11 05:23:45;;;;;;;13.88;10.05;;;;;19.60;96377.00;;;;8283005;28;20233;-70
2023/06/11 05:27:55;;;;;;;14.20;10.25;;;;;19.60;96375.00;;;;8282091;28;20221;-72
2023/06/11 05:32:01;;;;;;;12.80;9.55;;;;;19.60;96383.00;;;;8285736;28;20616;-73
2023/06/11 05:36:08;;;;;;;14.07;10.55;;;;;19.70;96384.00;;;;8282028;28;20225;-71
2023/06/11 05:40:12;;;;;;;15.43;10.07;;;;;19.90;96387.00;;;;8280151;28;20202;-72
2023/06/11 05:44:21;;;;;;;15.02;10.27;;;;;20.20;96392.00;;;;8278709;28;20194;-72
2023/06/11 05:48:28;;;;;;;19.33;10.95;;;;;20.50;96396.00;;;;8282895;28;20238;-71
2023/06/11 05:52:34;;;;;;;14.65;10.60;;;;;21.00;96392.00;;;;8278195;28;20245;-71
2023/06/11 05:56:37;;;;;;;13.18;9.88;;;;;21.60;96398.00;;;;8280842;28;20229;-74
2023/06/11 06:00:42;;;;;;;12.15;9.63;;;;;21.70;96400.00;;;;8270979;28;20651;-72
2023/06/11 06:04:50;;;;;;;12.45;9.88;;;;;22.10;96402.00;;;;8269979;28;20202;-72
2023/06/11 06:08:59;;;;;;;11.60;10.07;;;;;22.50;96406.00;;;;8274698;28;20202;-75
2023/06/11 06:13:02;;;;;;;16.70;9.68;;;;;23.10;96402.00;;;;8268037;28;20222;-73
2023/06/11 06:17:09;;;;;;;11.88;9.35;;;;;23.30;96414.00;;;;8278152;28;20575;-73
2023/06/11 06:21:15;;;;;;;13.43;9.85;;;;;23.00;96418.00;;;;8270461;28;20222;-72
2023/06/11 06:25:24;;;;;;;13.30;9.45;;;;;23.00;96409.00;;;;8279023;28;20229;-74
2023/06/11 06:29:27;;;;;;;11.82;9.88;;;;;23.40;96419.00;;;;8276637;28;20194;-75
2023/06/11 06:33:35;;;;;;;10.32;9.23;;;;;23.90;96423.00;;;;8271067;28;20261;-73
2023/06/11 06:37:38;;;;;;;13.55;9.48;;;;;24.40;96426.00;;;;8271163;28;20698;-73
2023/06/11 06:41:46;;;;;;;14.18;10.52;;;;;24.80;96424.00;;;;8279106;28;20225;-74
2023/06/11 06:45:52;;;;;;;12.10;9.70;;;;;25.00;96428.00;;;;8280250;28;20309;-74
2023/06/11 06:49:57;;;;;;;12.02;10.07;;;;;25.30;96431.00;;;;8281526;28;20217;-72
2023/06/11 06:54:00;;;;;;;13.20;9.18;;;;;25.70;96431.00;;;;8276185;28;20840;-75
2023/06/11 06:58:05;;;;;;;13.98;10.05;;;;;26.00;96432.00;;;;8280398;28;20630;-74
2023/06/11 07:02:08;;;;;;;10.25;9.10;;;;;26.00;96437.00;;;;8278128;28;20775;-74
2023/06/11 07:06:17;;;;;;;9.95;8.95;;;;;26.40;96433.00;;;;8283197;28;20291;-73
2023/06/11 07:10:21;;;;;;;10.80;8.45;;;;;26.90;96434.00;;;;8281817;28;20710;-72
2023/06/11 07:14:25;;;;;;;11.82;8.32;;;;;27.30;96432.00;;;;8276940;28;20324;-73
2023/06/11 07:18:29;;;;;;;9.07;8.13;;;;;27.40;96425.00;;;;8278899;28;20202;-72
2023/06/11 07:22:32;;;;;;;10.35;7.40;;;;;27.20;96432.00;;;;8277002;28;20202;-72
2023/06/11 07:26:38;;;;;;;10.85;7.15;;;;;26.10;96426.00;;;;8267117;28;20566;-72
2023/06/11 07:30:43;;;;;;;9.95;7.10;;;;;25.60;96428.00;;;;8272931;28;20284;-72
2023/06/11 07:34:46;;;;;;;9.27;7.20;;;;;25.40;96431.00;;;;8274185;28;20316;-71
2023/06/11 07:38:54;;;;;;;8.52;7.20;;;;;25.40;96433.00;;;;8275709;28;20202;-71
2023/06/11 07:42:57;;;;;;;9.52;6.60;;;;;25.50;96427.00;;;;8277483;28;20216;-69
2023/06/11 07:47:10;;;;;;;7.75;6.80;;;;;25.50;96435.00;;;;8274285;28;20206;-71
2023/06/11 07:51:14;;;;;;;11.88;6.90;;;;;26.00;96437.00;;;;8279191;28;20245;-71
2023/06/11 07:55:24;;;;;;;8.50;6.43;;;;;26.00;96437.00;;;;8277335;28;20725;-71
2023/06/11 07:59:29;;;;;;;10.23;7.45;;;;;26.60;96436.00;;;;8275464;28;20194;-71
2023/06/11 08:03:34;;;;;;;8.18;7.05;;;;;27.20;96444.00;;;;8278096;28;20232;-71
2023/06/11 08:07:37;;;;;;;8.40;6.57;;;;;27.40;96438.00;;;;8271629;28;20202;-73
2023/06/11 08:11:42;;;;;;;8.00;6.47;;;;;27.30;96426.00;;;;8275040;28;20278;-71
2023/06/11 08:15:48;;;;;;;11.05;6.13;;;;;27.60;96447.00;;;;8278333;28;20254;-73
2023/06/11 08:19:55;;;;;;;6.78;6.10;;;;;28.00;96428.00;;;;8274777;28;20587;-71
2023/06/11 08:24:01;;;;;;;8.45;5.30;;;;;28.40;96430.00;;;;8276468;28;20234;-71
2023/06/11 08:28:06;;;;;;;10.35;5.38;;;;;28.70;96441.00;;;;8274071;28;20206;-72
2023/06/11 08:32:12;;;;;;;6.97;5.68;;;;;28.80;96429.00;;;;8282247;28;20548;-72
2023/06/11 08:36:17;;;;;;;6.82;5.03;;;;;29.40;96427.00;;;;8284046;28;20229;-69
2023/06/11 08:40:22;;;;;;;9.63;5.40;;;;;29.60;96428.00;;;;8278472;28;20224;-71
2023/06/11 08:44:26;;;;;;;8.57;5.13;;;;;30.00;96423.00;;;;8281322;28;20194;-72
2023/06/11 08:48:38;;;;;;;6.25;5.60;;;;;30.40;96436.00;;;;8277982;28;20210;-72
2023/06/11 08:52:50;;;;;;;8.52;4.97;;;;;31.10;96422.00;;;;8279310;28;20209;-70
2023/06/11 08:56:54;;;;;;;8.00;4.93;;;;;31.30;96424.00;;;;8282132;28;20630;-75
2023/06/11 09:00:58;;;;;;;8.88;4.90;;;;;31.50;96430.00;;;;8280340;28;20210;-73
2023/06/11 09:05:04;;;;;;;8.02;5.50;;;;;31.70;96432.00;;;;8275181;28;20297;-72
2023/06/11 09:09:12;;;;;;;7.65;5.18;;;;;31.40;96435.00;;;;8279000;28;20198;-71
2023/06/11 09:13:17;;;;;;;7.30;4.65;;;;;30.30;96431.00;;;;8273549;28;20195;-71
2023/06/11 09:17:21;;;;;;;6.78;4.70;;;;;29.80;96426.00;;;;8279308;28;20712;-72
2023/06/11 09:21:30;;;;;;;7.65;4.47;;;;;30.00;96441.00;;;;8276804;28;20217;-69
2023/06/11 09:25:40;;;;;;;7.53;4.47;;;;;29.80;96437.00;;;;8283237;28;21921;-75
2023/06/11 09:29:46;;;;;;;10.43;4.63;;;;;29.70;96441.00;;;;8271697;28;20575;-74
2023/06/11 09:33:49;;;;;;;5.30;4.60;;;;;29.90;96433.00;;;;8284394;28;20212;-76
2023/06/11 09:37:54;;;;;;;9.05;4.28;;;;;30.30;96430.00;;;;8282894;28;20642;-74
2023/06/11 09:42:02;;;;;;;7.18;4.38;;;;;30.80;96429.00;;;;8280118;28;20845;-74
2023/06/11 09:46:11;;;;;;;4.63;4.13;;;;;31.40;96450.00;;;;8284113;28;20202;-72
2023/06/11 09:50:17;;;;;;;5.18;4.20;;;;;31.60;96432.00;;;;8281739;28;20210;-73
2023/06/11 09:54:22;;;;;;;5.38;4.75;;;;;32.00;96440.00;;;;8274976;28;20226;-76
2023/06/11 09:58:34;;;;;;;6.90;4.13;;;;;32.10;96445.00;;;;8273960;28;20744;-74
2023/06/11 10:02:41;;;;;;;4.28;3.75;;;;;32.30;96441.00;;;;8276684;28;20317;-77
2023/06/11 10:06:52;;;;;;;4.88;4.07;;;;;32.20;96444.00;;;;8272801;28;20207;-79
2023/06/11 10:10:57;;;;;;;4.50;3.97;;;;;32.50;96433.00;;;;8274741;28;20820;-79
2023/06/11 10:15:04;;;;;;;6.43;4.18;;;;;32.60;96438.00;;;;8273454;28;20591;-75
2023/06/11 10:19:08;;;;;;;5.70;4.10;;;;;32.20;96442.00;;;;8266698;28;20194;-76
2023/06/11 10:23:12;;;;;;;5.68;4.03;;;;;31.40;96437.00;;;;8283805;28;20197;-81
2023/06/11 10:27:17;;;;;;;5.72;3.70;;;;;31.40;96444.00;;;;8282292;28;20718;-81
2023/06/11 10:31:30;;;;;;;4.25;3.95;;;;;32.00;96438.00;;;;8277795;28;20233;-76
2023/06/11 10:35:33;;;;;;;5.70;4.30;;;;;32.40;96442.00;;;;8281099;28;20245;-77
2023/06/11 10:39:37;;;;;;;4.78;4.20;;;;;31.70;96442.00;;;;8277772;28;20710;-77
2023/06/11 10:43:41;;;;;;;4.95;4.20;;;;;30.80;96442.00;;;;8282621;28;20281;-76
2023/06/11 10:47:47;;;;;;;6.32;4.18;;;;;31.80;96435.00;;;;8277747;28;20203;-79
2023/06/11 10:51:54;;;;;;;4.28;3.88;;;;;32.80;96437.00;;;;8277673;28;20429;-78
2023/06/11 10:56:05;;;;;;;4.30;3.90;;;;;33.30;96435.00;;;;8273849;28;20280;-78
2023/06/11 11:00:12;;;;;;;3.97;3.67;;;;;32.40;96433.00;;;;8271180;28;20229;-78
2023/06/11 11:04:17;;;;;;;5.13;3.88;;;;;31.60;96433.00;;;;8276090;28;20265;-75
2023/06/11 11:08:21;;;;;;;4.28;3.70;;;;;31.20;96422.00;;;;8279887;28;20194;-78
2023/06/11 11:12:36;;;;;;;4.63;4.20;;;;;32.60;96420.00;;;;8280678;28;20233;-79
2023/06/11 11:16:39;;;;;;;4.28;3.97;;;;;33.70;96430.00;;;;8273050;28;20300;-77
2023/06/11 11:20:48;;;;;;;5.65;4.00;;;;;34.10;96425.00;;;;8275665;28;20194;-80
2023/06/11 11:24:52;;;;;;;4.93;4.18;;;;;34.00;96419.00;;;;8273158;28;20665;-76
2023/06/11 11:28:55;;;;;;;4.13;3.72;;;;;33.80;96425.00;;;;8275184;28;20282;-80
2023/06/11 11:33:00;;;;;;;4.65;4.05;;;;;33.30;96421.00;;;;8268091;28;20212;-79
2023/06/11 11:37:06;;;;;;;4.30;3.90;;;;;32.20;96427.00;;;;8266813;28;20876;-82
2023/06/11 11:41:14;;;;;;;4.43;4.03;;;;;31.30;96423.00;;;;8269893;28;20285;-82
2023/06/11 11:45:17;;;;;;;6.28;3.97;;;;;30.90;96411.00;;;;8274390;28;20208;-82
2023/06/11 11:49:21;;;;;;;4.03;3.72;;;;;31.00;96400.00;;;;8273347;28;20202;-79
2023/06/11 11:53:29;;;;;;;6.05;3.90;;;;;29.80;96424.00;;;;8283980;28;20199;-79
2023/06/11 11:57:33;;;;;;;4.20;3.85;;;;;30.00;96413.00;;;;8287011;28;20230;-81
2023/06/11 12:01:39;;;;;;;5.60;4.10;;;;;29.40;96421.00;;;;8276832;28;20876;-79
2023/06/11 12:05:42;;;;;;;4.32;3.85;;;;;28.80;96411.00;;;;8283537;28;20258;-78
2023/06/11 12:09:47;;;;;;;4.63;3.78;;;;;30.60;96410.00;;;;8278849;28;20210;-81
2023/06/11 12:13:51;;;;;;;5.70;4.03;;;;;32.20;96420.00;;;;8281407;28;20417;-74
2023/06/11 12:17:55;;;;;;;3.95;3.65;;;;;32.70;96418.00;;;;8279504;28;20244;-75
2023/06/11 12:21:58;;;;;;;3.88;3.53;;;;;33.40;96418.00;;;;8277958;28;20198;-75
2023/06/11 12:26:03;;;;;;;4.20;3.80;;;;;33.70;96414.00;;;;8278593;28;20288;-76
2023/06/11 12:30:14;;;;;;;4.20;3.72;;;;;33.50;96414.00;;;;8281853;28;20198;-74
2023/06/11 12:34:17;;;;;;;4.88;4.28;;;;;32.80;96413.00;;;;8276462;28;20198;-75
2023/06/11 12:38:21;;;;;;;3.90;3.60;;;;;32.10;96420.00;;;;8277782;28;20225;-73
2023/06/11 12:42:27;;;;;;;4.63;3.67;;;;;31.80;96409.00;;;;8281301;28;20291;-73
2023/06/11 12:46:36;;;;;;;4.05;2.85;;;;;31.80;96404.00;;;;8281752;28;20828;-74
2023/06/11 12:50:39;;;;;;;3.83;3.33;;;;;31.20;96398.00;;;;8277266;28;20198;-75
2023/06/11 12:54:42;;;;;;;4.75;3.63;;;;;30.60;96406.00;;;;8276670;28;20209;-73
2023/06/11 12:58:49;;;;;;;4.45;3.38;;;;;30.50;96394.00;;;;8264635;28;20225;-75
2023/06/11 13:02:53;;;;;;;4.25;3.88;;;;;30.60;96403.00;;;;8276736;28;20230;-74
2023/06/11 13:07:02;;;;;;;7.88;3.58;;;;;30.50;96401.00;;;;8275598;28;20285;-75
2023/06/11 13:11:06;;;;;;;3.92;3.60;;;;;30.30;96391.00;;;;8273277;28;21506;-74
2023/06/11 13:15:12;;;;;;;4.45;3.58;;;;;31.00;96402.00;;;;8278664;28;20249;-74
2023/06/11 13:19:16;;;;;;;6.32;3.60;;;;;31.30;96398.00;;;;8285404;28;20289;-75
2023/06/11 13:23:20;;;;;;;3.53;2.60;;;;;31.90;96393.00;;;;8277404;28;20221;-74
2023/06/11 13:27:25;;;;;;;6.38;3.05;;;;;31.90;96396.00;;;;8281455;28;20240;-74
2023/06/11 13:31:29;;;;;;;4.90;3.30;;;;;31.90;96391.00;;;;8282864;28;20206;-75
2023/06/11 13:35:38;;;;;;;4.05;3.38;;;;;31.90;96388.00;;;;8280164;28;20206;-74
2023/06/11 13:39:44;;;;;;;3.40;3.10;;;;;32.30;96391.00;;;;8269244;28;20647;-74
2023/06/11 13:43:49;;;;;;;4.07;2.80;;;;;33.10;96387.00;;;;8280909;28;20719;-75
2023/06/11 13:48:03;;;;;;;3.65;2.97;;;;;33.60;96380.00;;;;8280222;28;20190;-75
2023/06/11 13:52:08;;;;;;;2.90;2.70;;;;;33.40;96382.00;;;;8276461;28;20727;-74
2023/06/11 13:56:15;;;;;;;5.93;2.80;;;;;33.50;96372.00;;;;8279005;28;20751;-74
2023/06/11 14:00:18;;;;;;;6.55;3.28;;;;;33.80;96372.00;;;;8274347;28;20854;-75
2023/06/11 14:04:22;;;;;;;3.42;3.03;;;;;33.90;96384.00;;;;8270857;28;20226;-74
2023/06/11 14:08:26;;;;;;;2.90;2.70;;;;;34.00;96379.00;;;;8272140;28;20334;-74
2023/06/11 14:12:31;;;;;;;4.10;3.45;;;;;33.70;96378.00;;;;8266081;28;20205;-72
2023/06/11 14:16:37;;;;;;;3.30;3.00;;;;;34.00;96380.00;;;;8266745;28;20345;-74
2023/06/11 14:20:42;;;;;;;4.05;2.80;;;;;34.20;96361.00;;;;8272384;28;20210;-74
2023/06/11 14:24:45;;;;;;;3.63;3.05;;;;;34.80;96369.00;;;;8272231;28;20198;-74
2023/06/11 14:28:52;;;;;;;2.92;2.72;;;;;34.90;96377.00;;;;8273047;28;20205;-75
2023/06/11 14:33:00;;;;;;;3.85;3.03;;;;;34.10;96363.00;;;;8271625;28;20206;-74
2023/06/11 14:37:08;;;;;;;3.97;2.72;;;;;33.80;96354.00;;;;8264691;28;20300;-74
2023/06/11 14:41:11;;;;;;;3.28;2.85;;;;;34.00;96343.00;;;;8273332;28;20217;-74
2023/06/11 14:45:20;;;;;;;3.25;2.95;;;;;33.60;96349.00;;;;8278800;28;20876;-71
2023/06/11 14:49:23;;;;;;;3.30;3.00;;;;;33.30;96358.00;;;;8270355;28;20288;-70
2023/06/11 14:53:35;;;;;;;4.13;3.20;;;;;33.30;96344.00;;;;8276879;28;20229;-74
2023/06/11 14:57:42;;;;;;;3.22;3.00;;;;;33.70;96343.00;;;;8270220;28;20230;-72
2023/06/11 15:01:47;;;;;;;4.00;3.20;;;;;33.60;96337.00;;;;8278617;28;20242;-73
2023/06/11 15:05:52;;;;;;;4.63;3.38;;;;;33.60;96337.00;;;;8274685;28;20205;-72
2023/06/11 15:09:57;;;;;;;3.03;2.83;;;;;33.40;96339.00;;;;8269419;28;20217;-72
2023/06/11 15:14:00;;;;;;;3.33;3.08;;;;;33.40;96345.00;;;;8272639;28;20801;-72
2023/06/11 15:18:11;;;;;;;3.22;2.83;;;;;33.00;96331.00;;;;8269167;28;20903;-72
2023/06/11 15:22:17;;;;;;;3.00;2.80;;;;;32.60;96330.00;;;;8272721;28;20249;-73
2023/06/11 15:26:22;;;;;;;3.40;3.08;;;;;32.60;96329.00;;;;8270810;28;20197;-72
2023/06/11 15:30:25;;;;;;;3.17;2.85;;;;;33.00;96321.00;;;;8274996;28;20208;-73
2023/06/11 15:34:28;;;;;;;5.10;3.15;;;;;33.10;96330.00;;;;8271030;28;20198;-72
2023/06/11 15:38:31;;;;;;;6.68;3.10;;;;;33.40;96326.00;;;;8271733;28;20313;-73
2023/06/11 15:42:37;;;;;;;3.00;2.80;;;;;33.90;96313.00;;;;8279742;28;20212;-72
2023/06/11 15:46:40;;;;;;;3.30;3.03;;;;;34.30;96324.00;;;;8277160;28;20278;-72
2023/06/11 15:50:47;;;;;;;3.70;3.40;;;;;34.30;96316.00;;;;8283630;28;20662;-72
2023/06/11 15:54:55;;;;;;;3.60;3.30;;;;;33.80;96310.00;;;;8279024;28;20586;-72
2023/06/11 15:59:02;;;;;;;3.65;3.35;;;;;33.60;96311.00;;;;8280515;28;20226;-71
2023/06/11 16:03:06;;;;;;;4.50;3.03;;;;;33.20;96315.00;;;;8283968;28;20240;-72
2023/06/11 16:07:10;;;;;;;5.00;3.63;;;;;33.00;96300.00;;;;8277848;28;20210;-71
2023/06/11 16:11:13;;;;;;;4.95;3.67;;;;;33.10;96308.00;;;;8276567;28;20222;-72
2023/06/11 16:15:19;;;;;;;4.10;3.08;;;;;33.40;96310.00;;;;8272320;28;20213;-72
2023/06/11 16:19:23;;;;;;;3.78;3.47;;;;;33.30;96306.00;;;;8280132;28;20652;-72
2023/06/11 16:23:26;;;;;;;4.18;3.78;;;;;32.50;96311.00;;;;8277306;28;20206;-74
2023/06/11 16:27:29;;;;;;;3.75;3.40;;;;;31.80;96311.00;;;;8277134;28;20678;-72
2023/06/11 16:31:45;;;;;;;4.38;3.97;;;;;31.20;96309.00;;;;8279437;28;20624;-72
2023/06/11 16:35:48;;;;;;;5.57;3.75;;;;;31.00;96314.00;;;;8279710;28;20206;-73
2023/06/11 16:39:54;;;;;;;5.15;4.35;;;;;30.80;96314.00;;;;8286300;28;20252;-74
2023/06/11 16:43:57;;;;;;;4.75;4.00;;;;;30.20;96319.00;;;;8285084;28;20301;-75
2023/06/11 16:48:02;;;;;;;7.40;4.22;;;;;29.80;96313.00;;;;8286695;28;20285;-72
2023/06/11 16:52:06;;;;;;;4.45;4.07;;;;;30.10;96315.00;;;;8278716;28;20248;-73
2023/06/11 16:56:12;;;;;;;4.07;3.42;;;;;30.50;96312.00;;;;8286261;28;20198;-73
2023/06/11 17:00:16;;;;;;;5.03;4.05;;;;;30.40;96308.00;;;;8288287;28;20313;-68
2023/06/11 17:04:23;;;;;;;4.05;3.75;;;;;30.50;96307.00;;;;8289516;28;20230;-68
2023/06/11 17:08:35;;;;;;;3.83;3.53;;;;;30.50;96308.00;;;;8285633;28;20311;-68
2023/06/11 17:12:40;;;;;;;6.07;4.03;;;;;30.80;96314.00;;;;8289613;28;20622;-67
2023/06/11 17:16:43;;;;;;;4.70;3.90;;;;;30.90;96313.00;;;;8281675;28;20225;-67
2023/06/11 17:20:48;;;;;;;5.10;3.45;;;;;31.20;96316.00;;;;8283815;28;20198;-68
2023/06/11 17:24:53;;;;;;;3.60;3.30;;;;;31.20;96318.00;;;;8285430;28;20204;-69
2023/06/11 17:28:58;;;;;;;3.45;3.25;;;;;31.10;96317.00;;;;8281535;28;20245;-68
2023/06/11 17:33:02;;;;;;;3.45;3.20;;;;;31.20;96327.00;;;;8279797;28;20314;-67
2023/06/11 17:37:09;;;;;;;3.78;3.53;;;;;31.20;96319.00;;;;8280533;28;20234;-72
2023/06/11 17:41:12;;;;;;;3.75;3.30;;;;;31.20;96321.00;;;;8292935;28;20305;-73
2023/06/11 17:45:16;;;;;;;3.90;3.60;;;;;30.70;96333.00;;;;8281998;28;20222;-74
2023/06/11 17:49:19;;;;;;;4.45;3.92;;;;;30.20;96334.00;;;;8270118;28;21791;-74
2023/06/11 17:53:23;;;;;;;4.80;3.75;;;;;29.50;96325.00;;;;8278275;28;20271;-72
2023/06/11 17:57:28;;;;;;;4.03;3.60;;;;;28.80;96333.00;;;;8279132;28;20677;-72
2023/06/11 18:01:31;;;;;;;4.10;3.80;;;;;28.10;96335.00;;;;8281858;28;20337;-73
2023/06/11 18:05:37;;;;;;;4.43;4.03;;;;;27.40;96332.00;;;;8281346;28;20209;-73
2023/06/11 18:09:43;;;;;;;5.20;3.95;;;;;26.80;96333.00;;;;8279858;28;20244;-71
2023/06/11 18:13:46;;;;;;;5.63;3.92;;;;;26.30;96335.00;;;;8279413;28;20217;-71
2023/06/11 18:17:52;;;;;;;5.30;3.90;;;;;26.00;96333.00;;;;8270087;28;20235;-69
2023/06/11 18:21:57;;;;;;;4.85;3.95;;;;;25.60;96333.00;;;;8276044;28;20225;-66
2023/06/11 18:26:03;;;;;;;5.05;4.15;;;;;25.30;96336.00;;;;8278562;28;20289;-65
2023/06/11 18:30:09;;;;;;;4.85;3.63;;;;;25.10;96331.00;;;;8281104;28;20260;-65
2023/06/11 18:34:13;;;;;;;4.47;4.18;;;;;24.80;96335.00;;;;8283970;28;20190;-64
2023/06/11 18:38:19;;;;;;;5.47;4.22;;;;;24.60;96334.00;;;;8271565;28;20710;-65
2023/06/11 18:42:26;;;;;;;4.78;4.07;;;;;24.40;96338.00;;;;8281081;28;20194;-65
2023/06/11 18:46:30;;;;;;;10.55;4.00;;;;;24.10;96342.00;;;;8284786;28;20289;-65
2023/06/11 18:50:33;;;;;;;6.05;4.25;;;;;24.00;96344.00;;;;8279532;28;20202;-65
2023/06/11 18:54:38;;;;;;;4.88;4.10;;;;;23.80;96346.00;;;;8276903;28;20206;-65
2023/06/11 18:58:43;;;;;;;4.90;4.38;;;;;23.60;96352.00;;;;8274686;28;21086;-65
2023/06/11 19:02:48;;;;;;;6.32;4.35;;;;;23.40;96354.00;;;;8279558;28;20244;-65
2023/06/11 19:06:56;;;;;;;4.85;4.40;;;;;23.20;96355.00;;;;8278241;28;20210;-65
2023/06/11 19:11:02;;;;;;;5.75;4.95;;;;;23.10;96360.00;;;;8279527;28;20209;-65
2023/06/11 19:15:08;;;;;;;4.85;4.20;;;;;22.90;96355.00;;;;8274347;28;20245;-65
2023/06/11 19:19:18;;;;;;;6.03;5.13;;;;;22.70;96363.00;;;;8281051;28;20224;-64
2023/06/11 19:23:26;;;;;;;4.70;4.03;;;;;22.60;96367.00;;;;8279014;28;20550;-64
2023/06/11 19:27:30;;;;;;;5.45;4.72;;;;;22.40;96366.00;;;;8275199;28;20226;-62
2023/06/11 19:31:35;;;;;;;14.05;4.53;;;;;22.20;96367.00;;;;8277359;28;20204;-64
2023/06/11 19:35:38;;;;;;;4.80;4.30;;;;;22.10;96375.00;;;;8274901;28;20995;-64
2023/06/11 19:39:45;;;;;;;6.85;4.70;;;;;22.00;96376.00;;;;8257383;28;20280;-63
2023/06/11 19:43:48;;;;;;;5.10;3.83;;;;;21.90;96369.00;;;;8277744;28;20705;-63
2023/06/11 19:48:00;;;;;;;6.93;4.50;;;;;21.80;96372.00;;;;8277752;28;20234;-62
2023/06/11 19:52:03;;;;;;;5.07;4.57;;;;;21.60;96372.00;;;;8282132;28;21671;-63
2023/06/11 19:56:06;;;;;;;6.25;4.72;;;;;21.40;96379.00;;;;8279157;28;20229;-62
2023/06/11 20:00:16;;;;;;;5.10;4.35;;;;;21.30;96372.00;;;;8282223;28;20752;-63
2023/06/11 20:04:21;;;;;;;5.18;4.68;;;;;21.20;96381.00;;;;8284487;28;20572;-63
2023/06/11 20:08:25;;;;;;;5.70;4.43;;;;;21.10;96379.00;;;;8285224;28;20285;-62
2023/06/11 20:12:28;;;;;;;5.60;4.40;;;;;20.90;96380.00;;;;8283784;28;20695;-62
2023/06/11 20:16:31;;;;;;;8.38;4.50;;;;;20.80;96372.00;;;;8282770;28;20724;-63
2023/06/11 20:20:36;;;;;;;6.88;4.25;;;;;20.70;96378.00;;;;8281891;28;21769;-63
2023/06/11 20:24:48;;;;;;;5.30;4.35;;;;;20.60;96384.00;;;;8280158;28;20230;-69
2023/06/11 20:28:51;;;;;;;4.50;4.13;;;;;20.60;96386.00;;;;8286849;28;20206;-69